sensor_id;sensor_type;location;lat;lon;timestamp;P1;durP1;ratioP1;P2;durP2;ratioP2
53843;SDS011;39744;53.314;5.710;2023-01-13T00:01:09;30.83;;;6.13;;
53843;SDS011;39744;53.314;5.710;2023-01-13T00:03:42;38.08;;;6.22;;
53843;SDS011;39744;53.314;5.710;2023-01-13T00:06:09;40.90;;;7.93;;
53843;SDS011;39744;53.314;5.710;2023-01-13T00:08:38;41.65;;;6.90;;
53843;SDS011;39744;53.314;5.710;2023-01-13T00:11:03;38.45;;;6.20;;
53843;SDS011;39744;53.314;5.710;2023-01-13T00:13:29;37.40;;;6.93;;
53843;SDS011;39744;53.314;5.710;2023-01-13T00:18:23;37.17;;;6.45;;
53843;SDS011;39744;53.314;5.710;2023-01-13T00:23:29;42.22;;;7.10;;
53843;SDS011;39744;53.314;5.710;2023-01-13T00:25:56;41.25;;;6.55;;
53843;SDS011;39744;53.314;5.710;2023-01-13T00:28:22;38.17;;;7.00;;
53843;SDS011;39744;53.314;5.710;2023-01-13T00:30:48;36.88;;;7.07;;
53843;SDS011;39744;53.314;5.710;2023-01-13T00:33:14;43.53;;;6.90;;
53843;SDS011;39744;53.314;5.710;2023-01-13T00:35:39;43.10;;;7.40;;
53843;SDS011;39744;53.314;5.710;2023-01-13T00:38:05;41.80;;;7.43;;
53843;SDS011;39744;53.314;5.710;2023-01-13T00:40:31;40.17;;;6.72;;
53843;SDS011;39744;53.314;5.710;2023-01-13T00:42:56;40.35;;;6.63;;
53843;SDS011;39744;53.314;5.710;2023-01-13T00:45:40;39.47;;;7.85;;
53843;SDS011;39744;53.314;5.710;2023-01-13T00:48:07;38.33;;;6.35;;
53843;SDS011;39744;53.314;5.710;2023-01-13T00:50:33;37.45;;;6.70;;
53843;SDS011;39744;53.314;5.710;2023-01-13T00:52:59;38.22;;;7.65;;
53843;SDS011;39744;53.314;5.710;2023-01-13T00:55:25;44.35;;;7.93;;
53843;SDS011;39744;53.314;5.710;2023-01-13T00:57:50;45.38;;;7.70;;
53843;SDS011;39744;53.314;5.710;2023-01-13T01:00:16;47.08;;;7.72;;
53843;SDS011;39744;53.314;5.710;2023-01-13T01:02:42;33.30;;;7.55;;
53843;SDS011;39744;53.314;5.710;2023-01-13T01:05:08;38.10;;;7.30;;
53843;SDS011;39744;53.314;5.710;2023-01-13T01:07:34;40.63;;;7.78;;
53843;SDS011;39744;53.314;5.710;2023-01-13T01:10:00;42.40;;;7.72;;
53843;SDS011;39744;53.314;5.710;2023-01-13T01:12:26;45.92;;;7.18;;
53843;SDS011;39744;53.314;5.710;2023-01-13T01:14:51;37.03;;;7.38;;
53843;SDS011;39744;53.314;5.710;2023-01-13T01:17:17;40.97;;;6.60;;
53843;SDS011;39744;53.314;5.710;2023-01-13T01:19:42;39.67;;;7.68;;
53843;SDS011;39744;53.314;5.710;2023-01-13T01:22:08;41.92;;;6.95;;
53843;SDS011;39744;53.314;5.710;2023-01-13T01:24:33;40.58;;;7.07;;
53843;SDS011;39744;53.314;5.710;2023-01-13T01:26:59;38.40;;;6.38;;
53843;SDS011;39744;53.314;5.710;2023-01-13T01:29:25;38.70;;;6.47;;
53843;SDS011;39744;53.314;5.710;2023-01-13T01:31:50;44.80;;;7.78;;
53843;SDS011;39744;53.314;5.710;2023-01-13T01:34:16;34.75;;;7.13;;
53843;SDS011;39744;53.314;5.710;2023-01-13T01:36:42;43.67;;;7.82;;
53843;SDS011;39744;53.314;5.710;2023-01-13T01:39:08;31.95;;;6.72;;
53843;SDS011;39744;53.314;5.710;2023-01-13T01:41:34;37.40;;;6.70;;
53843;SDS011;39744;53.314;5.710;2023-01-13T01:44:04;35.78;;;7.10;;
53843;SDS011;39744;53.314;5.710;2023-01-13T01:46:53;38.78;;;6.63;;
53843;SDS011;39744;53.314;5.710;2023-01-13T01:49:29;46.60;;;8.00;;
53843;SDS011;39744;53.314;5.710;2023-01-13T01:52:17;35.13;;;7.05;;
53843;SDS011;39744;53.314;5.710;2023-01-13T01:55:00;38.72;;;6.07;;
53843;SDS011;39744;53.314;5.710;2023-01-13T01:57:42;41.90;;;7.07;;
53843;SDS011;39744;53.314;5.710;2023-01-13T02:00:15;37.75;;;6.53;;
53843;SDS011;39744;53.314;5.710;2023-01-13T02:02:42;31.13;;;6.10;;
53843;SDS011;39744;53.314;5.710;2023-01-13T02:05:11;39.33;;;6.75;;
53843;SDS011;39744;53.314;5.710;2023-01-13T02:07:37;39.92;;;6.60;;
53843;SDS011;39744;53.314;5.710;2023-01-13T02:10:06;43.25;;;6.65;;
53843;SDS011;39744;53.314;5.710;2023-01-13T02:12:35;46.78;;;8.05;;
53843;SDS011;39744;53.314;5.710;2023-01-13T02:29:21;47.03;;;8.07;;
53843;SDS011;39744;53.314;5.710;2023-01-13T02:37:29;51.17;;;8.35;;
53843;SDS011;39744;53.314;5.710;2023-01-13T02:39:58;44.17;;;7.38;;
53843;SDS011;39744;53.314;5.710;2023-01-13T02:43:00;44.80;;;7.78;;
53843;SDS011;39744;53.314;5.710;2023-01-13T02:45:54;40.20;;;7.25;;
53843;SDS011;39744;53.314;5.710;2023-01-13T02:48:25;46.70;;;7.22;;
53843;SDS011;39744;53.314;5.710;2023-01-13T02:51:27;50.78;;;7.10;;
53843;SDS011;39744;53.314;5.710;2023-01-13T02:53:49;47.22;;;7.47;;
53843;SDS011;39744;53.314;5.710;2023-01-13T02:56:22;45.15;;;7.80;;
53843;SDS011;39744;53.314;5.710;2023-01-13T02:58:50;51.58;;;8.18;;
53843;SDS011;39744;53.314;5.710;2023-01-13T03:01:18;43.25;;;7.88;;
53843;SDS011;39744;53.314;5.710;2023-01-13T03:03:43;39.95;;;7.38;;
53843;SDS011;39744;53.314;5.710;2023-01-13T03:09:07;43.05;;;7.68;;
53843;SDS011;39744;53.314;5.710;2023-01-13T03:11:51;42.20;;;6.43;;
53843;SDS011;39744;53.314;5.710;2023-01-13T03:15:08;42.35;;;6.90;;
53843;SDS011;39744;53.314;5.710;2023-01-13T03:17:31;29.88;;;6.55;;
53843;SDS011;39744;53.314;5.710;2023-01-13T03:20:25;41.20;;;6.88;;
53843;SDS011;39744;53.314;5.710;2023-01-13T03:23:09;37.63;;;6.57;;
53843;SDS011;39744;53.314;5.710;2023-01-13T03:25:47;30.48;;;5.32;;
53843;SDS011;39744;53.314;5.710;2023-01-13T03:28:24;34.15;;;5.35;;
53843;SDS011;39744;53.314;5.710;2023-01-13T03:30:57;27.48;;;5.57;;
53843;SDS011;39744;53.314;5.710;2023-01-13T03:33:29;32.33;;;5.63;;
53843;SDS011;39744;53.314;5.710;2023-01-13T03:36:04;25.08;;;4.82;;
53843;SDS011;39744;53.314;5.710;2023-01-13T03:38:41;29.15;;;6.35;;
53843;SDS011;39744;53.314;5.710;2023-01-13T03:49:26;32.25;;;5.25;;
53843;SDS011;39744;53.314;5.710;2023-01-13T03:51:57;23.60;;;4.97;;
53843;SDS011;39744;53.314;5.710;2023-01-13T03:54:28;30.42;;;5.00;;
53843;SDS011;39744;53.314;5.710;2023-01-13T03:56:58;29.23;;;5.30;;
53843;SDS011;39744;53.314;5.710;2023-01-13T03:59:29;40.30;;;6.07;;
53843;SDS011;39744;53.314;5.710;2023-01-13T04:04:33;25.42;;;4.57;;
53843;SDS011;39744;53.314;5.710;2023-01-13T04:10:15;38.53;;;5.28;;
53843;SDS011;39744;53.314;5.710;2023-01-13T04:12:47;27.05;;;5.10;;
53843;SDS011;39744;53.314;5.710;2023-01-13T04:15:27;30.10;;;5.40;;
53843;SDS011;39744;53.314;5.710;2023-01-13T04:18:09;23.65;;;5.35;;
53843;SDS011;39744;53.314;5.710;2023-01-13T04:20:37;32.40;;;5.10;;
53843;SDS011;39744;53.314;5.710;2023-01-13T04:23:03;29.85;;;5.05;;
53843;SDS011;39744;53.314;5.710;2023-01-13T04:25:30;33.35;;;5.15;;
53843;SDS011;39744;53.314;5.710;2023-01-13T04:27:56;31.38;;;5.22;;
53843;SDS011;39744;53.314;5.710;2023-01-13T04:30:21;25.00;;;5.10;;
53843;SDS011;39744;53.314;5.710;2023-01-13T04:32:47;31.52;;;5.22;;
53843;SDS011;39744;53.314;5.710;2023-01-13T04:35:12;31.20;;;5.22;;
53843;SDS011;39744;53.314;5.710;2023-01-13T04:37:38;30.73;;;5.70;;
53843;SDS011;39744;53.314;5.710;2023-01-13T04:40:04;26.42;;;4.80;;
53843;SDS011;39744;53.314;5.710;2023-01-13T04:42:30;33.17;;;4.75;;
53843;SDS011;39744;53.314;5.710;2023-01-13T04:44:55;31.77;;;5.15;;
53843;SDS011;39744;53.314;5.710;2023-01-13T04:47:21;31.80;;;5.95;;
53843;SDS011;39744;53.314;5.710;2023-01-13T04:49:46;34.35;;;6.43;;
53843;SDS011;39744;53.314;5.710;2023-01-13T04:52:12;26.13;;;4.32;;
53843;SDS011;39744;53.314;5.710;2023-01-13T04:54:38;26.10;;;5.00;;
53843;SDS011;39744;53.314;5.710;2023-01-13T04:57:03;30.02;;;5.00;;
53843;SDS011;39744;53.314;5.710;2023-01-13T04:59:29;26.95;;;5.28;;
53843;SDS011;39744;53.314;5.710;2023-01-13T05:01:54;26.00;;;5.32;;
53843;SDS011;39744;53.314;5.710;2023-01-13T05:04:20;27.95;;;5.07;;
53843;SDS011;39744;53.314;5.710;2023-01-13T05:06:45;34.03;;;5.63;;
53843;SDS011;39744;53.314;5.710;2023-01-13T05:09:11;31.08;;;4.95;;
53843;SDS011;39744;53.314;5.710;2023-01-13T05:11:37;30.13;;;4.90;;
53843;SDS011;39744;53.314;5.710;2023-01-13T05:14:22;27.23;;;5.38;;
53843;SDS011;39744;53.314;5.710;2023-01-13T05:17:06;34.20;;;6.00;;
53843;SDS011;39744;53.314;5.710;2023-01-13T05:19:34;32.30;;;5.50;;
53843;SDS011;39744;53.314;5.710;2023-01-13T05:22:00;35.45;;;6.13;;
53843;SDS011;39744;53.314;5.710;2023-01-13T05:24:45;27.23;;;5.13;;
53843;SDS011;39744;53.314;5.710;2023-01-13T05:27:30;36.38;;;6.10;;
53843;SDS011;39744;53.314;5.710;2023-01-13T05:29:56;33.72;;;6.15;;
53843;SDS011;39744;53.314;5.710;2023-01-13T05:32:22;45.78;;;7.10;;
53843;SDS011;39744;53.314;5.710;2023-01-13T05:34:48;26.63;;;4.72;;
53843;SDS011;39744;53.314;5.710;2023-01-13T05:37:14;43.20;;;7.70;;
53843;SDS011;39744;53.314;5.710;2023-01-13T05:39:40;35.17;;;5.43;;
53843;SDS011;39744;53.314;5.710;2023-01-13T05:42:24;33.95;;;5.63;;
53843;SDS011;39744;53.314;5.710;2023-01-13T05:45:09;24.58;;;5.57;;
53843;SDS011;39744;53.314;5.710;2023-01-13T05:47:35;30.10;;;4.95;;
53843;SDS011;39744;53.314;5.710;2023-01-13T05:50:01;33.35;;;6.22;;
53843;SDS011;39744;53.314;5.710;2023-01-13T05:52:27;30.90;;;4.95;;
53843;SDS011;39744;53.314;5.710;2023-01-13T05:54:53;29.08;;;5.43;;
53843;SDS011;39744;53.314;5.710;2023-01-13T05:57:19;28.77;;;5.30;;
53843;SDS011;39744;53.314;5.710;2023-01-13T05:59:44;28.00;;;4.85;;
53843;SDS011;39744;53.314;5.710;2023-01-13T06:02:10;29.15;;;5.68;;
53843;SDS011;39744;53.314;5.710;2023-01-13T06:04:36;32.05;;;5.65;;
53843;SDS011;39744;53.314;5.710;2023-01-13T06:07:01;37.25;;;6.20;;
53843;SDS011;39744;53.314;5.710;2023-01-13T06:09:27;29.23;;;5.47;;
53843;SDS011;39744;53.314;5.710;2023-01-13T06:11:53;34.83;;;5.10;;
53843;SDS011;39744;53.314;5.710;2023-01-13T06:14:18;32.75;;;5.70;;
53843;SDS011;39744;53.314;5.710;2023-01-13T06:16:44;31.15;;;5.72;;
53843;SDS011;39744;53.314;5.710;2023-01-13T06:19:10;35.83;;;5.80;;
53843;SDS011;39744;53.314;5.710;2023-01-13T06:21:40;32.38;;;5.93;;
53843;SDS011;39744;53.314;5.710;2023-01-13T06:24:06;32.58;;;5.55;;
53843;SDS011;39744;53.314;5.710;2023-01-13T06:26:37;35.92;;;5.78;;
53843;SDS011;39744;53.314;5.710;2023-01-13T06:29:04;36.03;;;5.55;;
53843;SDS011;39744;53.314;5.710;2023-01-13T06:31:30;30.73;;;5.10;;
53843;SDS011;39744;53.314;5.710;2023-01-13T06:34:01;27.10;;;4.68;;
53843;SDS011;39744;53.314;5.710;2023-01-13T06:36:34;29.33;;;5.03;;
53843;SDS011;39744;53.314;5.710;2023-01-13T06:39:02;27.60;;;6.00;;
53843;SDS011;39744;53.314;5.710;2023-01-13T06:41:28;28.77;;;4.38;;
53843;SDS011;39744;53.314;5.710;2023-01-13T06:44:15;22.50;;;4.72;;
53843;SDS011;39744;53.314;5.710;2023-01-13T06:46:43;28.13;;;5.07;;
53843;SDS011;39744;53.314;5.710;2023-01-13T06:49:08;33.58;;;4.88;;
53843;SDS011;39744;53.314;5.710;2023-01-13T06:51:34;24.85;;;4.70;;
53843;SDS011;39744;53.314;5.710;2023-01-13T06:54:00;30.20;;;5.53;;
53843;SDS011;39744;53.314;5.710;2023-01-13T06:56:25;25.40;;;5.43;;
53843;SDS011;39744;53.314;5.710;2023-01-13T06:58:51;34.50;;;5.15;;
53843;SDS011;39744;53.314;5.710;2023-01-13T07:01:16;31.98;;;5.63;;
53843;SDS011;39744;53.314;5.710;2023-01-13T07:03:42;32.50;;;5.28;;
53843;SDS011;39744;53.314;5.710;2023-01-13T07:06:07;28.98;;;5.18;;
53843;SDS011;39744;53.314;5.710;2023-01-13T07:08:33;37.28;;;5.40;;
53843;SDS011;39744;53.314;5.710;2023-01-13T07:11:00;30.25;;;5.00;;
53843;SDS011;39744;53.314;5.710;2023-01-13T07:13:26;31.08;;;4.97;;
53843;SDS011;39744;53.314;5.710;2023-01-13T07:16:11;29.02;;;5.75;;
53843;SDS011;39744;53.314;5.710;2023-01-13T07:18:36;30.42;;;5.00;;
53843;SDS011;39744;53.314;5.710;2023-01-13T07:21:10;29.55;;;5.70;;
53843;SDS011;39744;53.314;5.710;2023-01-13T07:23:38;43.30;;;6.88;;
53843;SDS011;39744;53.314;5.710;2023-01-13T07:26:05;29.90;;;5.38;;
53843;SDS011;39744;53.314;5.710;2023-01-13T07:28:31;27.35;;;6.22;;
53843;SDS011;39744;53.314;5.710;2023-01-13T07:30:57;24.05;;;4.75;;
53843;SDS011;39744;53.314;5.710;2023-01-13T07:33:24;42.60;;;7.20;;
53843;SDS011;39744;53.314;5.710;2023-01-13T07:35:56;35.63;;;5.55;;
53843;SDS011;39744;53.314;5.710;2023-01-13T07:38:24;32.10;;;5.88;;
53843;SDS011;39744;53.314;5.710;2023-01-13T07:40:50;35.95;;;6.05;;
53843;SDS011;39744;53.314;5.710;2023-01-13T07:43:15;33.42;;;6.00;;
53843;SDS011;39744;53.314;5.710;2023-01-13T07:45:57;26.98;;;5.70;;
53843;SDS011;39744;53.314;5.710;2023-01-13T07:48:27;35.08;;;6.90;;
53843;SDS011;39744;53.314;5.710;2023-01-13T07:50:53;40.08;;;5.75;;
53843;SDS011;39744;53.314;5.710;2023-01-13T07:53:19;30.90;;;5.80;;
53843;SDS011;39744;53.314;5.710;2023-01-13T07:55:46;35.65;;;5.38;;
53843;SDS011;39744;53.314;5.710;2023-01-13T07:58:11;30.33;;;5.43;;
53843;SDS011;39744;53.314;5.710;2023-01-13T08:00:37;31.13;;;5.68;;
53843;SDS011;39744;53.314;5.710;2023-01-13T08:03:03;35.03;;;5.30;;
53843;SDS011;39744;53.314;5.710;2023-01-13T08:05:28;29.77;;;5.38;;
53843;SDS011;39744;53.314;5.710;2023-01-13T08:07:54;28.85;;;5.85;;
53843;SDS011;39744;53.314;5.710;2023-01-13T08:10:20;26.35;;;4.68;;
53843;SDS011;39744;53.314;5.710;2023-01-13T08:12:45;38.45;;;5.78;;
53843;SDS011;39744;53.314;5.710;2023-01-13T08:15:30;39.55;;;6.60;;
53843;SDS011;39744;53.314;5.710;2023-01-13T08:17:56;33.40;;;6.22;;
53843;SDS011;39744;53.314;5.710;2023-01-13T08:20:23;35.78;;;6.25;;
53843;SDS011;39744;53.314;5.710;2023-01-13T08:22:49;33.70;;;5.72;;
53843;SDS011;39744;53.314;5.710;2023-01-13T08:25:14;32.95;;;7.18;;
53843;SDS011;39744;53.314;5.710;2023-01-13T08:27:41;35.25;;;6.35;;
53843;SDS011;39744;53.314;5.710;2023-01-13T08:30:07;39.78;;;5.97;;
53843;SDS011;39744;53.314;5.710;2023-01-13T08:32:33;39.20;;;6.95;;
53843;SDS011;39744;53.314;5.710;2023-01-13T08:34:59;39.13;;;6.30;;
53843;SDS011;39744;53.314;5.710;2023-01-13T08:37:24;30.90;;;5.70;;
53843;SDS011;39744;53.314;5.710;2023-01-13T08:39:50;31.80;;;6.28;;
53843;SDS011;39744;53.314;5.710;2023-01-13T08:42:15;33.60;;;6.03;;
53843;SDS011;39744;53.314;5.710;2023-01-13T08:44:41;42.45;;;6.85;;
53843;SDS011;39744;53.314;5.710;2023-01-13T08:47:07;27.15;;;5.43;;
53843;SDS011;39744;53.314;5.710;2023-01-13T08:49:32;33.28;;;5.90;;
53843;SDS011;39744;53.314;5.710;2023-01-13T08:51:58;31.25;;;6.43;;
53843;SDS011;39744;53.314;5.710;2023-01-13T08:54:24;36.20;;;5.78;;
53843;SDS011;39744;53.314;5.710;2023-01-13T08:56:49;41.83;;;6.07;;
53843;SDS011;39744;53.314;5.710;2023-01-13T08:59:16;36.72;;;6.10;;
53843;SDS011;39744;53.314;5.710;2023-01-13T09:01:43;37.35;;;5.82;;
53843;SDS011;39744;53.314;5.710;2023-01-13T09:04:17;33.25;;;6.10;;
53843;SDS011;39744;53.314;5.710;2023-01-13T09:06:44;30.23;;;5.45;;
53843;SDS011;39744;53.314;5.710;2023-01-13T09:09:10;31.63;;;6.18;;
53843;SDS011;39744;53.314;5.710;2023-01-13T09:11:38;38.90;;;5.43;;
53843;SDS011;39744;53.314;5.710;2023-01-13T09:14:25;34.00;;;6.30;;
53843;SDS011;39744;53.314;5.710;2023-01-13T09:16:51;31.83;;;5.80;;
53843;SDS011;39744;53.314;5.710;2023-01-13T09:19:17;29.05;;;5.40;;
53843;SDS011;39744;53.314;5.710;2023-01-13T09:21:42;32.42;;;5.40;;
53843;SDS011;39744;53.314;5.710;2023-01-13T09:24:08;34.55;;;5.45;;
53843;SDS011;39744;53.314;5.710;2023-01-13T09:26:34;34.80;;;5.22;;
53843;SDS011;39744;53.314;5.710;2023-01-13T09:29:01;37.30;;;6.05;;
53843;SDS011;39744;53.314;5.710;2023-01-13T09:31:27;39.90;;;6.82;;
53843;SDS011;39744;53.314;5.710;2023-01-13T09:33:53;40.92;;;7.10;;
53843;SDS011;39744;53.314;5.710;2023-01-13T09:36:37;36.80;;;6.35;;
53843;SDS011;39744;53.314;5.710;2023-01-13T09:39:03;42.55;;;5.72;;
53843;SDS011;39744;53.314;5.710;2023-01-13T09:41:29;34.20;;;5.68;;
53843;SDS011;39744;53.314;5.710;2023-01-13T09:44:26;21.98;;;5.00;;
53843;SDS011;39744;53.314;5.710;2023-01-13T09:47:00;29.90;;;5.00;;
53843;SDS011;39744;53.314;5.710;2023-01-13T09:54:42;36.83;;;5.20;;
53843;SDS011;39744;53.314;5.710;2023-01-13T09:57:30;23.85;;;5.00;;
53843;SDS011;39744;53.314;5.710;2023-01-13T10:00:00;22.40;;;4.90;;
53843;SDS011;39744;53.314;5.710;2023-01-13T10:02:36;27.27;;;5.38;;
53843;SDS011;39744;53.314;5.710;2023-01-13T10:08:12;22.15;;;4.82;;
53843;SDS011;39744;53.314;5.710;2023-01-13T10:10:47;27.23;;;5.10;;
53843;SDS011;39744;53.314;5.710;2023-01-13T10:13:29;34.75;;;5.10;;
53843;SDS011;39744;53.314;5.710;2023-01-13T10:16:04;24.33;;;3.90;;
53843;SDS011;39744;53.314;5.710;2023-01-13T10:18:50;32.22;;;5.47;;
53843;SDS011;39744;53.314;5.710;2023-01-13T10:21:42;21.00;;;4.05;;
53843;SDS011;39744;53.314;5.710;2023-01-13T10:24:24;29.80;;;5.53;;
53843;SDS011;39744;53.314;5.710;2023-01-13T10:27:03;34.03;;;4.75;;
53843;SDS011;39744;53.314;5.710;2023-01-13T10:29:36;35.72;;;5.07;;
53843;SDS011;39744;53.314;5.710;2023-01-13T10:32:02;22.45;;;5.75;;
53843;SDS011;39744;53.314;5.710;2023-01-13T10:34:28;25.70;;;4.78;;
53843;SDS011;39744;53.314;5.710;2023-01-13T10:39:25;25.95;;;5.13;;
53843;SDS011;39744;53.314;5.710;2023-01-13T10:41:59;26.75;;;5.72;;
53843;SDS011;39744;53.314;5.710;2023-01-13T10:44:29;24.30;;;4.50;;
53843;SDS011;39744;53.314;5.710;2023-01-13T10:46:56;24.20;;;4.82;;
53843;SDS011;39744;53.314;5.710;2023-01-13T10:51:57;24.95;;;4.72;;
53843;SDS011;39744;53.314;5.710;2023-01-13T10:54:24;26.00;;;4.72;;
53843;SDS011;39744;53.314;5.710;2023-01-13T10:57:11;21.45;;;4.78;;
53843;SDS011;39744;53.314;5.710;2023-01-13T10:59:42;23.38;;;4.30;;
53843;SDS011;39744;53.314;5.710;2023-01-13T11:04:41;22.70;;;4.15;;
53843;SDS011;39744;53.314;5.710;2023-01-13T11:07:17;33.88;;;5.75;;
53843;SDS011;39744;53.314;5.710;2023-01-13T11:10:13;21.00;;;4.63;;
53843;SDS011;39744;53.314;5.710;2023-01-13T11:13:06;21.45;;;4.45;;
53843;SDS011;39744;53.314;5.710;2023-01-13T11:21:23;16.27;;;4.32;;
53843;SDS011;39744;53.314;5.710;2023-01-13T11:24:00;29.13;;;4.93;;
53843;SDS011;39744;53.314;5.710;2023-01-13T11:26:40;31.27;;;5.45;;
53843;SDS011;39744;53.314;5.710;2023-01-13T11:29:16;21.83;;;5.13;;
53843;SDS011;39744;53.314;5.710;2023-01-13T11:31:52;28.85;;;4.22;;
53843;SDS011;39744;53.314;5.710;2023-01-13T11:34:35;19.90;;;4.32;;
53843;SDS011;39744;53.314;5.710;2023-01-13T11:37:07;22.15;;;4.20;;
53843;SDS011;39744;53.314;5.710;2023-01-13T11:39:41;27.35;;;5.05;;
53843;SDS011;39744;53.314;5.710;2023-01-13T11:42:22;23.65;;;3.88;;
53843;SDS011;39744;53.314;5.710;2023-01-13T11:48:00;24.90;;;5.63;;
53843;SDS011;39744;53.314;5.710;2023-01-13T11:55:52;28.98;;;4.28;;
53843;SDS011;39744;53.314;5.710;2023-01-13T11:59:01;24.00;;;4.35;;
53843;SDS011;39744;53.314;5.710;2023-01-13T12:01:43;27.30;;;5.40;;
53843;SDS011;39744;53.314;5.710;2023-01-13T12:04:23;33.55;;;4.97;;
53843;SDS011;39744;53.314;5.710;2023-01-13T12:06:58;26.30;;;4.93;;
53843;SDS011;39744;53.314;5.710;2023-01-13T12:22:54;21.40;;;4.00;;
53843;SDS011;39744;53.314;5.710;2023-01-13T12:25:33;25.40;;;4.72;;
53843;SDS011;39744;53.314;5.710;2023-01-13T12:28:14;24.08;;;4.57;;
53843;SDS011;39744;53.314;5.710;2023-01-13T12:30:49;28.65;;;4.63;;
53843;SDS011;39744;53.314;5.710;2023-01-13T12:36:17;24.90;;;4.03;;
53843;SDS011;39744;53.314;5.710;2023-01-13T12:42:22;18.38;;;3.65;;
53843;SDS011;39744;53.314;5.710;2023-01-13T12:45:20;28.20;;;5.20;;
53843;SDS011;39744;53.314;5.710;2023-01-13T12:47:53;26.73;;;4.78;;
53843;SDS011;39744;53.314;5.710;2023-01-13T12:55:19;24.08;;;3.75;;
53843;SDS011;39744;53.314;5.710;2023-01-13T13:08:15;33.60;;;5.20;;
53843;SDS011;39744;53.314;5.710;2023-01-13T13:10:54;22.73;;;5.05;;
53843;SDS011;39744;53.314;5.710;2023-01-13T13:13:41;21.88;;;4.95;;
53843;SDS011;39744;53.314;5.710;2023-01-13T13:18:49;29.08;;;4.53;;
53843;SDS011;39744;53.314;5.710;2023-01-13T13:21:15;23.60;;;4.78;;
53843;SDS011;39744;53.314;5.710;2023-01-13T13:23:43;25.67;;;4.50;;
53843;SDS011;39744;53.314;5.710;2023-01-13T13:26:26;29.00;;;5.80;;
53843;SDS011;39744;53.314;5.710;2023-01-13T13:29:08;22.92;;;4.00;;
53843;SDS011;39744;53.314;5.710;2023-01-13T13:37:32;20.92;;;4.43;;
53843;SDS011;39744;53.314;5.710;2023-01-13T13:40:32;17.35;;;4.13;;
53843;SDS011;39744;53.314;5.710;2023-01-13T13:43:22;20.35;;;4.22;;
53843;SDS011;39744;53.314;5.710;2023-01-13T13:49:13;20.35;;;3.72;;
53843;SDS011;39744;53.314;5.710;2023-01-13T13:51:45;23.42;;;4.05;;
53843;SDS011;39744;53.314;5.710;2023-01-13T13:54:28;22.38;;;4.43;;
53843;SDS011;39744;53.314;5.710;2023-01-13T13:56:55;23.77;;;3.75;;
53843;SDS011;39744;53.314;5.710;2023-01-13T13:59:23;19.10;;;3.97;;
53843;SDS011;39744;53.314;5.710;2023-01-13T14:01:52;25.27;;;4.45;;
53843;SDS011;39744;53.314;5.710;2023-01-13T14:04:25;24.98;;;4.28;;
53843;SDS011;39744;53.314;5.710;2023-01-13T14:09:49;29.42;;;5.70;;
53843;SDS011;39744;53.314;5.710;2023-01-13T14:12:21;35.67;;;5.28;;
53843;SDS011;39744;53.314;5.710;2023-01-13T14:14:48;12.27;;;2.83;;
53843;SDS011;39744;53.314;5.710;2023-01-13T14:17:16;14.00;;;2.90;;
53843;SDS011;39744;53.314;5.710;2023-01-13T14:19:49;24.90;;;4.57;;
53843;SDS011;39744;53.314;5.710;2023-01-13T14:22:22;34.65;;;5.45;;
53843;SDS011;39744;53.314;5.710;2023-01-13T14:24:47;33.40;;;4.88;;
53843;SDS011;39744;53.314;5.710;2023-01-13T14:27:19;31.80;;;5.10;;
53843;SDS011;39744;53.314;5.710;2023-01-13T14:29:45;22.25;;;3.80;;
53843;SDS011;39744;53.314;5.710;2023-01-13T14:32:16;21.02;;;3.60;;
53843;SDS011;39744;53.314;5.710;2023-01-13T14:34:43;30.47;;;4.07;;
53843;SDS011;39744;53.314;5.710;2023-01-13T14:39:57;23.08;;;3.80;;
53843;SDS011;39744;53.314;5.710;2023-01-13T14:42:22;36.30;;;6.13;;
53843;SDS011;39744;53.314;5.710;2023-01-13T14:44:49;24.67;;;4.35;;
53843;SDS011;39744;53.314;5.710;2023-01-13T14:52:36;37.13;;;4.85;;
53843;SDS011;39744;53.314;5.710;2023-01-13T14:55:27;24.05;;;4.63;;
53843;SDS011;39744;53.314;5.710;2023-01-13T15:04:21;20.75;;;3.95;;
53843;SDS011;39744;53.314;5.710;2023-01-13T15:06:56;15.23;;;3.20;;
53843;SDS011;39744;53.314;5.710;2023-01-13T15:09:24;17.88;;;2.85;;
53843;SDS011;39744;53.314;5.710;2023-01-13T15:11:52;21.30;;;4.90;;
53843;SDS011;39744;53.314;5.710;2023-01-13T15:14:24;25.40;;;4.50;;
53843;SDS011;39744;53.314;5.710;2023-01-13T15:16:55;27.00;;;4.97;;
53843;SDS011;39744;53.314;5.710;2023-01-13T15:19:21;31.20;;;5.07;;
53843;SDS011;39744;53.314;5.710;2023-01-13T15:21:46;34.28;;;5.85;;
53843;SDS011;39744;53.314;5.710;2023-01-13T15:24:12;42.28;;;7.05;;
53843;SDS011;39744;53.314;5.710;2023-01-13T15:26:38;39.60;;;6.35;;
53843;SDS011;39744;53.314;5.710;2023-01-13T15:29:03;30.73;;;4.88;;
53843;SDS011;39744;53.314;5.710;2023-01-13T15:31:33;31.52;;;6.07;;
53843;SDS011;39744;53.314;5.710;2023-01-13T15:33:59;25.88;;;4.65;;
53843;SDS011;39744;53.314;5.710;2023-01-13T15:36:29;25.88;;;4.40;;
53843;SDS011;39744;53.314;5.710;2023-01-13T15:38:56;22.98;;;4.82;;
53843;SDS011;39744;53.314;5.710;2023-01-13T15:41:23;16.38;;;4.35;;
53843;SDS011;39744;53.314;5.710;2023-01-13T15:44:11;22.83;;;5.20;;
53843;SDS011;39744;53.314;5.710;2023-01-13T15:46:57;25.33;;;3.63;;
53843;SDS011;39744;53.314;5.710;2023-01-13T15:49:26;23.83;;;4.55;;
53843;SDS011;39744;53.314;5.710;2023-01-13T15:51:59;21.10;;;4.03;;
53843;SDS011;39744;53.314;5.710;2023-01-13T15:54:29;21.00;;;4.13;;
53843;SDS011;39744;53.314;5.710;2023-01-13T15:56:55;23.65;;;4.60;;
53843;SDS011;39744;53.314;5.710;2023-01-13T15:59:21;17.20;;;3.88;;
53843;SDS011;39744;53.314;5.710;2023-01-13T16:01:50;27.45;;;4.53;;
53843;SDS011;39744;53.314;5.710;2023-01-13T16:04:15;23.33;;;4.55;;
53843;SDS011;39744;53.314;5.710;2023-01-13T16:06:41;18.83;;;4.18;;
53843;SDS011;39744;53.314;5.710;2023-01-13T16:09:09;24.30;;;3.85;;
53843;SDS011;39744;53.314;5.710;2023-01-13T16:11:37;26.10;;;5.47;;
53843;SDS011;39744;53.314;5.710;2023-01-13T16:14:02;27.27;;;4.60;;
53843;SDS011;39744;53.314;5.710;2023-01-13T16:16:28;11.07;;;3.03;;
53843;SDS011;39744;53.314;5.710;2023-01-13T16:18:54;14.23;;;3.08;;
53843;SDS011;39744;53.314;5.710;2023-01-13T16:21:20;18.45;;;3.78;;
53843;SDS011;39744;53.314;5.710;2023-01-13T16:23:47;20.00;;;3.70;;
53843;SDS011;39744;53.314;5.710;2023-01-13T16:26:21;25.90;;;4.78;;
53843;SDS011;39744;53.314;5.710;2023-01-13T16:28:49;19.35;;;4.50;;
53843;SDS011;39744;53.314;5.710;2023-01-13T16:31:17;19.95;;;3.85;;
53843;SDS011;39744;53.314;5.710;2023-01-13T16:33:48;18.23;;;3.95;;
53843;SDS011;39744;53.314;5.710;2023-01-13T16:36:15;22.85;;;3.95;;
53843;SDS011;39744;53.314;5.710;2023-01-13T16:38:42;23.02;;;3.92;;
53843;SDS011;39744;53.314;5.710;2023-01-13T16:41:08;26.63;;;4.28;;
53843;SDS011;39744;53.314;5.710;2023-01-13T16:43:34;20.63;;;3.63;;
53843;SDS011;39744;53.314;5.710;2023-01-13T16:45:59;29.58;;;4.93;;
53843;SDS011;39744;53.314;5.710;2023-01-13T16:48:25;24.42;;;4.82;;
53843;SDS011;39744;53.314;5.710;2023-01-13T16:50:51;27.58;;;5.50;;
53843;SDS011;39744;53.314;5.710;2023-01-13T16:53:16;25.90;;;4.82;;
53843;SDS011;39744;53.314;5.710;2023-01-13T16:55:42;28.13;;;5.97;;
53843;SDS011;39744;53.314;5.710;2023-01-13T16:58:13;26.00;;;5.22;;
53843;SDS011;39744;53.314;5.710;2023-01-13T17:00:43;25.63;;;4.88;;
53843;SDS011;39744;53.314;5.710;2023-01-13T17:03:13;22.67;;;4.80;;
53843;SDS011;39744;53.314;5.710;2023-01-13T17:05:40;25.02;;;4.70;;
53843;SDS011;39744;53.314;5.710;2023-01-13T17:08:13;32.20;;;5.50;;
53843;SDS011;39744;53.314;5.710;2023-01-13T17:10:42;26.80;;;5.05;;